createdAt,value
2022-12-08T00:02:34.807Z,99590.41
2022-12-08T00:06:27.907Z,99589.30
2022-12-08T00:09:58.996Z,99588.22
2022-12-08T00:13:27.052Z,99589.30
2022-12-08T00:16:58.146Z,99590.73
2022-12-08T00:20:29.463Z,99595.05
2022-12-08T00:24:01.018Z,99598.67
2022-12-08T00:27:31.873Z,99605.41
2022-12-08T00:31:00.491Z,99606.27
2022-12-08T00:34:28.045Z,99601.96
2022-12-08T00:38:00.798Z,99608.59
2022-12-08T00:41:47.436Z,99612.77
2022-12-08T00:45:36.700Z,99610.90
2022-12-08T00:49:18.957Z,99616.23
2022-12-08T00:52:56.950Z,99619.80
2022-12-08T00:56:25.651Z,99619.79
2022-12-08T00:59:54.573Z,99617.45
2022-12-08T01:03:21.927Z,99620.68
2022-12-08T01:06:51.765Z,99624.08
2022-12-08T01:10:18.847Z,99629.42
2022-12-08T01:13:45.994Z,99635.73
2022-12-08T01:17:12.980Z,99639.16
2022-12-08T01:20:39.605Z,99638.98
2022-12-08T01:24:07.929Z,99641.00
2022-12-08T01:27:35.757Z,99640.07
2022-12-08T01:31:03.271Z,99635.91
2022-12-08T01:34:37.351Z,99638.26
2022-12-08T01:38:04.258Z,99641.75
2022-12-08T01:41:36.170Z,99641.84
2022-12-08T01:45:05.801Z,99646.52
2022-12-08T01:48:32.860Z,99647.32
2022-12-08T01:52:04.585Z,99653.83
2022-12-08T01:55:36.768Z,99657.40
2022-12-08T01:59:04.964Z,99655.21
2022-12-08T02:02:38.314Z,99651.67
2022-12-08T02:06:06.095Z,99648.62
2022-12-08T02:09:32.946Z,99650.31
2022-12-08T02:13:02.326Z,99646.88
2022-12-08T02:16:44.712Z,99650.10
2022-12-08T02:20:32.563Z,99655.69
2022-12-08T02:24:11.589Z,99661.43
2022-12-08T02:27:57.392Z,99670.60
2022-12-08T02:31:36.432Z,99680.67
2022-12-08T02:35:10.531Z,99690.77
2022-12-08T02:38:47.562Z,99696.39
2022-12-08T02:42:23.865Z,99705.29
2022-12-08T02:45:54.005Z,99706.39
2022-12-08T02:49:20.284Z,99707.98
2022-12-08T02:52:51.119Z,99714.72
2022-12-08T02:56:37.250Z,99713.38
2022-12-08T03:00:10.384Z,99709.52
2022-12-08T03:03:44.207Z,99716.03
2022-12-08T03:07:12.241Z,99719.98
2022-12-08T03:10:42.967Z,99722.90
2022-12-08T03:14:11.993Z,99726.10
2022-12-08T03:17:42.197Z,99732.89
2022-12-08T03:21:10.821Z,99731.75
2022-12-08T03:24:40.360Z,99736.35
2022-12-08T03:28:07.723Z,99736.20
2022-12-08T03:31:40.921Z,99733.98
2022-12-08T03:35:12.664Z,99736.75
2022-12-08T03:38:43.333Z,99741.79
2022-12-08T03:42:09.859Z,99740.16
2022-12-08T03:45:36.729Z,99739.20
2022-12-08T03:49:03.378Z,99741.98
2022-12-08T03:52:30.172Z,99745.05
2022-12-08T03:55:57.450Z,99745.58
2022-12-08T03:59:23.617Z,99751.39
2022-12-08T04:02:50.421Z,99756.48
2022-12-08T04:06:18.576Z,99757.62
2022-12-08T04:09:45.864Z,99759.52
2022-12-08T04:13:12.073Z,99760.35
2022-12-08T04:16:40.372Z,99765.73
2022-12-08T04:20:08.002Z,99769.31
2022-12-08T04:23:34.669Z,99768.40
2022-12-08T04:27:01.148Z,99767.43
2022-12-08T04:30:28.477Z,99764.41
2022-12-08T04:33:55.119Z,99764.84
2022-12-08T04:37:21.595Z,99764.36
2022-12-08T04:40:48.244Z,99765.96
2022-12-08T04:44:15.113Z,99769.95
2022-12-08T04:47:42.126Z,99769.86
2022-12-08T04:51:09.168Z,99766.72
2022-12-08T04:54:37.073Z,99770.02
2022-12-08T04:58:03.892Z,99762.13
2022-12-08T05:01:30.733Z,99765.70
2022-12-08T05:05:02.845Z,99761.56
2022-12-08T05:08:30.812Z,99761.30
2022-12-08T05:11:57.875Z,99756.83
2022-12-08T05:15:25.951Z,99761.24
2022-12-08T05:18:53.182Z,99760.33
2022-12-08T05:22:19.964Z,99766.98
2022-12-08T05:25:46.979Z,99767.05
2022-12-08T05:29:13.815Z,99767.23
2022-12-08T05:32:40.675Z,99772.88
2022-12-08T05:36:08.346Z,99771.91
2022-12-08T05:39:35.816Z,99769.26
2022-12-08T05:43:05.678Z,99764.04
2022-12-08T05:46:32.560Z,99765.11
2022-12-08T05:49:59.346Z,99762.13
2022-12-08T05:53:26.857Z,99761.73
2022-12-08T05:56:55.571Z,99769.00
2022-12-08T06:00:25.669Z,99771.81
2022-12-08T06:03:52.659Z,99780.75
2022-12-08T06:07:19.973Z,99780.48
2022-12-08T06:10:49.902Z,99784.89
2022-12-08T06:14:18.846Z,99789.80
2022-12-08T06:17:45.296Z,99789.61
2022-12-08T06:21:14.131Z,99791.99
2022-12-08T06:24:40.755Z,99797.65
2022-12-08T06:28:10.607Z,99797.16
2022-12-08T06:31:37.200Z,99803.98
2022-12-08T06:35:07.476Z,99812.83
2022-12-08T06:38:37.103Z,99815.27
2022-12-08T06:42:32.430Z,99813.80
2022-12-08T06:46:01.836Z,99817.23
2022-12-08T06:49:28.947Z,99815.90
2022-12-08T06:53:03.145Z,99814.58
2022-12-08T06:56:33.702Z,99817.52
2022-12-08T07:00:00.046Z,99820.52
2022-12-08T07:03:26.763Z,99815.83
2022-12-08T07:06:54.175Z,99818.11
2022-12-08T07:10:21.122Z,99819.50
2022-12-08T07:13:47.726Z,99826.14
2022-12-08T07:17:14.447Z,99824.81
2022-12-08T07:20:41.525Z,99826.84
2022-12-08T07:24:09.073Z,99823.35
2022-12-08T07:27:36.364Z,99823.77
2022-12-08T07:31:03.468Z,99820.78
2022-12-08T07:34:30.115Z,99820.20
2022-12-08T07:37:57.966Z,99826.08
2022-12-08T07:41:26.324Z,99830.63
2022-12-08T07:44:52.950Z,99837.42
2022-12-08T07:48:19.868Z,99836.66
2022-12-08T07:51:46.409Z,99837.31
2022-12-08T07:55:13.217Z,99839.68
2022-12-08T07:58:39.786Z,99836.98
2022-12-08T08:02:23.457Z,99832.75
2022-12-08T08:05:50.617Z,99832.46
2022-12-08T08:09:16.997Z,99832.81
2022-12-08T08:12:43.248Z,99831.96
2022-12-08T08:16:13.788Z,99832.81
2022-12-08T08:19:40.629Z,99837.43
2022-12-08T08:23:07.186Z,99837.38
2022-12-08T08:26:33.416Z,99835.64
2022-12-08T08:30:00.366Z,99832.20
2022-12-08T08:33:27.858Z,99830.62
2022-12-08T08:36:54.717Z,99829.31
2022-12-08T08:40:21.551Z,99823.38
2022-12-08T08:43:47.893Z,99821.20
2022-12-08T08:47:16.032Z,99819.43
2022-12-08T08:50:42.630Z,99817.30
2022-12-08T08:54:09.180Z,99817.10
2022-12-08T08:57:36.125Z,99816.22
2022-12-08T09:01:02.829Z,99818.17
2022-12-08T09:04:30.302Z,99820.36
2022-12-08T09:07:59.044Z,99818.67
2022-12-08T09:11:25.992Z,99814.42
2022-12-08T09:14:53.010Z,99812.75
2022-12-08T09:18:19.584Z,99810.27
2022-12-08T09:21:46.408Z,99808.54
2022-12-08T09:25:13.586Z,99805.75
2022-12-08T09:28:40.413Z,99800.46
2022-12-08T09:32:07.289Z,99799.13
2022-12-08T09:35:34.929Z,99793.10
2022-12-08T09:39:02.505Z,99788.71
2022-12-08T09:42:37.847Z,99787.08
2022-12-08T09:46:06.320Z,99779.04
2022-12-08T09:49:41.109Z,99771.40
2022-12-08T09:53:13.052Z,99767.80
2022-12-08T09:56:41.145Z,99764.09
2022-12-08T10:00:13.846Z,99752.67
2022-12-08T10:03:41.777Z,99749.31
2022-12-08T10:07:15.646Z,99746.80
2022-12-08T10:10:59.137Z,99746.55
2022-12-08T10:14:33.517Z,99745.36
2022-12-08T10:18:02.349Z,99741.45
2022-12-08T10:21:32.540Z,99731.55
2022-12-08T10:25:06.801Z,99720.70
2022-12-08T10:28:38.815Z,99709.80
2022-12-08T10:32:20.349Z,99702.64
2022-12-08T10:35:49.506Z,99700.48
2022-12-08T10:39:36.282Z,99695.77
2022-12-08T10:43:03.243Z,99694.33
2022-12-08T10:46:31.527Z,99693.04
2022-12-08T10:50:20.345Z,99694.16
2022-12-08T10:53:49.594Z,99684.70
2022-12-08T10:57:25.732Z,99683.81
2022-12-08T11:00:54.933Z,99685.00
2022-12-08T11:04:23.419Z,99686.83
2022-12-08T11:07:54.075Z,99682.52
2022-12-08T11:11:27.607Z,99680.38
2022-12-08T11:15:03.570Z,99678.30
2022-12-08T11:18:40.727Z,99678.61
2022-12-08T11:22:24.227Z,99679.69
2022-12-08T11:25:53.004Z,99678.11
2022-12-08T11:29:20.072Z,99680.55
2022-12-08T11:32:48.996Z,99683.39
2022-12-08T11:36:18.301Z,99676.52
2022-12-08T11:39:53.076Z,99674.38
2022-12-08T11:43:27.103Z,99671.70
2022-12-08T11:46:58.741Z,99671.63
2022-12-08T11:50:31.285Z,99670.16
2022-12-08T11:54:17.451Z,99667.23
2022-12-08T11:57:44.694Z,99665.17
2022-12-08T12:01:19.957Z,99662.71
2022-12-08T12:04:52.282Z,99661.41
2022-12-08T12:08:36.106Z,99657.11
2022-12-08T12:12:14.485Z,99656.48
2022-12-08T12:16:21.291Z,99652.56
2022-12-08T12:19:50.563Z,99649.30
2022-12-08T12:23:22.468Z,99651.88
2022-12-08T12:27:00.534Z,99652.50
2022-12-08T12:30:29.144Z,99652.57
2022-12-08T12:34:10.308Z,99644.42
2022-12-08T12:37:43.915Z,99644.69
2022-12-08T12:41:13.669Z,99644.94
2022-12-08T12:44:46.607Z,99639.63
2022-12-08T12:48:32.508Z,99634.24
2022-12-08T12:51:59.918Z,99628.66
2022-12-08T12:55:51.693Z,99629.91
2022-12-08T12:59:36.381Z,99626.93
2022-12-08T13:03:02.765Z,99628.71
2022-12-08T13:06:39.522Z,99628.75
2022-12-08T13:10:18.269Z,99632.21
2022-12-08T13:13:59.400Z,99632.73
2022-12-08T13:17:30.978Z,99631.44
2022-12-08T13:21:05.146Z,99629.48
2022-12-08T13:24:36.147Z,99631.74
2022-12-08T13:28:15.061Z,99640.67
2022-12-08T13:31:49.828Z,99643.92
2022-12-08T13:35:18.608Z,99646.15
2022-12-08T13:38:49.139Z,99647.20
2022-12-08T13:42:26.232Z,99638.16
2022-12-08T13:54:45.730Z,99635.29
2022-12-08T13:57:32.741Z,99632.60
2022-12-08T14:01:05.801Z,99630.48
2022-12-08T14:08:58.006Z,99631.23
2022-12-08T14:12:22.120Z,99628.76
2022-12-08T14:15:48.521Z,99626.61
2022-12-08T14:19:21.994Z,99623.48
2022-12-08T14:22:50.478Z,99620.55
2022-12-08T14:26:18.159Z,99624.55
2022-12-08T14:29:47.959Z,99624.25
2022-12-08T14:33:18.673Z,99631.09
2022-12-08T14:36:45.833Z,99628.43
2022-12-08T14:40:24.105Z,99622.83
2022-12-08T14:44:02.333Z,99622.27
2022-12-08T14:47:32.492Z,99626.05
2022-12-08T14:51:05.597Z,99628.62
2022-12-08T14:54:32.662Z,99630.13
2022-12-08T14:57:58.981Z,99639.36
2022-12-08T15:01:26.920Z,99644.75
2022-12-08T15:05:01.232Z,99646.67
2022-12-08T15:08:28.021Z,99651.44
2022-12-08T15:12:03.704Z,99650.48
2022-12-08T15:15:31.512Z,99649.75
2022-12-08T15:19:19.271Z,99646.96
2022-12-08T15:22:46.768Z,99648.66
2022-12-08T15:26:23.441Z,99639.30
2022-12-08T15:29:51.351Z,99636.52
2022-12-08T15:33:18.074Z,99636.08
2022-12-08T15:36:47.090Z,99636.98
2022-12-08T15:40:19.945Z,99632.36
2022-12-08T15:43:51.206Z,99629.42
2022-12-08T15:47:27.015Z,99630.00
2022-12-08T15:50:54.544Z,99628.86
2022-12-08T15:54:20.750Z,99629.51
2022-12-08T16:01:42.392Z,99618.64
2022-12-08T16:05:41.020Z,99623.43
2022-12-08T16:09:11.241Z,99616.83
2022-12-08T16:13:55.399Z,99614.98
2022-12-08T16:16:46.001Z,99615.53
2022-12-08T16:20:18.569Z,99613.20
2022-12-08T16:23:46.492Z,99613.09
2022-12-08T16:27:59.499Z,99608.40
2022-12-08T16:31:23.096Z,99608.61
2022-12-08T16:34:51.487Z,99609.61
2022-12-08T16:38:18.985Z,99609.23
2022-12-08T16:42:04.069Z,99612.27
2022-12-08T16:45:39.977Z,99606.70
2022-12-08T16:49:15.785Z,99609.19
2022-12-08T16:52:42.963Z,99601.36
2022-12-08T16:56:17.347Z,99599.64
2022-12-08T16:59:47.959Z,99602.48
2022-12-08T17:03:19.945Z,99598.64
2022-12-08T17:06:55.145Z,99599.53
2022-12-08T17:10:31.927Z,99599.77
2022-12-08T17:14:06.698Z,99605.73
2022-12-08T17:17:36.259Z,99597.26
2022-12-08T17:21:10.125Z,99603.98
2022-12-08T17:24:39.099Z,99604.33
2022-12-08T17:28:07.899Z,99602.96
2022-12-08T17:31:38.362Z,99602.20
2022-12-08T17:35:07.431Z,99602.20
2022-12-08T17:38:42.397Z,99599.50
2022-12-08T17:42:16.465Z,99596.45
2022-12-08T17:45:49.077Z,99596.77
2022-12-08T17:49:22.186Z,99592.64
2022-12-08T17:52:51.177Z,99593.48
2022-12-08T17:56:24.475Z,99589.17
2022-12-08T17:59:51.697Z,99586.52
2022-12-08T18:03:21.334Z,99590.31
2022-12-08T18:06:49.020Z,99586.05
2022-12-08T18:10:23.399Z,99589.09
2022-12-08T18:13:52.703Z,99588.05
2022-12-08T18:17:27.930Z,99591.59
2022-12-08T18:21:05.487Z,99590.92
2022-12-08T18:24:32.650Z,99582.21
2022-12-08T18:28:00.696Z,99585.69
2022-12-08T18:31:27.672Z,99582.20
2022-12-08T18:34:56.774Z,99581.42
2022-12-08T18:38:24.243Z,99579.73
2022-12-08T18:41:51.401Z,99578.11
2022-12-08T18:45:23.130Z,99586.36
2022-12-08T18:48:52.702Z,99593.16
2022-12-08T18:52:26.888Z,99598.16
2022-12-08T18:55:55.717Z,99610.70
2022-12-08T18:59:23.178Z,99620.40
2022-12-08T19:02:51.255Z,99623.98
2022-12-08T19:06:18.960Z,99618.22
2022-12-08T19:09:45.798Z,99617.65
2022-12-08T19:13:14.291Z,99618.55
2022-12-08T19:16:40.886Z,99621.98
2022-12-08T19:20:12.697Z,99624.73
2022-12-08T19:23:40.842Z,99623.66
2022-12-08T19:27:11.291Z,99623.38
2022-12-08T19:30:39.342Z,99629.23
2022-12-08T19:34:14.877Z,99632.85
2022-12-08T19:37:44.792Z,99634.27
2022-12-08T19:41:32.774Z,99637.30
2022-12-08T19:45:06.186Z,99639.70
2022-12-08T19:48:35.354Z,99639.20
2022-12-08T19:52:03.458Z,99640.17
2022-12-08T19:55:33.519Z,99640.65
2022-12-08T19:59:01.784Z,99641.76
2022-12-08T20:02:28.912Z,99645.40
2022-12-08T20:05:57.344Z,99651.02
2022-12-08T20:09:26.615Z,99654.66
2022-12-08T20:13:20.821Z,99657.29
2022-12-08T20:16:54.316Z,99656.34
2022-12-08T20:20:26.567Z,99660.20
2022-12-08T20:23:57.990Z,99660.51
2022-12-08T20:27:25.231Z,99659.02
2022-12-08T20:31:00.057Z,99660.03
2022-12-08T20:34:32.710Z,99665.05
2022-12-08T20:38:03.974Z,99665.20
2022-12-08T20:41:36.114Z,99665.23
2022-12-08T20:45:11.317Z,99675.02
2022-12-08T20:48:40.932Z,99675.79
2022-12-08T20:52:14.095Z,99679.14
2022-12-08T20:55:44.264Z,99684.02
2022-12-08T20:59:18.913Z,99687.20
2022-12-08T21:02:56.328Z,99688.88
2022-12-08T21:06:27.501Z,99691.75
2022-12-08T21:10:01.090Z,99692.89
2022-12-08T21:13:29.771Z,99690.50
2022-12-08T21:16:59.718Z,99696.48
2022-12-08T21:20:30.706Z,99698.25
2022-12-08T21:23:57.956Z,99705.48
2022-12-08T21:27:25.228Z,99707.34
2022-12-08T21:30:53.040Z,99712.58
2022-12-08T21:34:33.797Z,99713.41
2022-12-08T21:38:09.050Z,99726.50
2022-12-08T21:41:58.717Z,99722.56
2022-12-08T21:45:30.586Z,99709.50
2022-12-08T21:48:59.527Z,99711.89
2022-12-08T21:52:28.811Z,99718.88
2022-12-08T21:56:02.239Z,99716.84
2022-12-08T21:59:33.149Z,99718.52
2022-12-08T22:03:06.562Z,99709.15
2022-12-08T22:06:40.293Z,99702.64
2022-12-08T22:10:15.062Z,99691.55
2022-12-08T22:13:44.121Z,99691.86
2022-12-08T22:17:16.875Z,99702.10
2022-12-08T22:20:50.974Z,99712.23
2022-12-08T22:24:22.571Z,99709.59
2022-12-08T22:27:50.134Z,99717.52
2022-12-08T22:31:19.981Z,99721.35
2022-12-08T22:34:49.457Z,99727.02
2022-12-08T22:38:20.164Z,99724.08
2022-12-08T22:41:51.565Z,99720.38
2022-12-08T22:45:20.095Z,99725.66
2022-12-08T22:48:49.795Z,99743.77
2022-12-08T22:52:20.284Z,99738.58
2022-12-08T22:55:47.586Z,99732.80
2022-12-08T22:59:15.707Z,99727.53
2022-12-08T23:02:45.185Z,99728.42
2022-12-08T23:06:21.458Z,99728.17
2022-12-08T23:09:49.190Z,99719.59
2022-12-08T23:13:18.164Z,99721.34
2022-12-08T23:16:48.137Z,99721.91
2022-12-08T23:20:20.353Z,99728.85
2022-12-08T23:23:47.623Z,99730.04
2022-12-08T23:27:15.767Z,99727.86
2022-12-08T23:30:44.384Z,99731.45
2022-12-08T23:34:14.321Z,99735.73
2022-12-08T23:37:51.240Z,99735.63
2022-12-08T23:41:21.668Z,99734.45
2022-12-08T23:44:50.189Z,99735.86
2022-12-08T23:48:18.188Z,99737.68
2022-12-08T23:51:47.032Z,99738.17
2022-12-08T23:55:23.986Z,99740.77
2022-12-08T23:58:51.380Z,99742.23
